Terminal Aerodrome Forecast
Issued by NWS Binghamton, NY

Home | Current Version | Previous Version | Text Only | Print | Product List | Glossary On
Versions: 1 2 3 4 5 6 7 8 9 10 11 12 13 14 15 16
000
FTUS41 KBGM 230500
TAFSYR
TAF
KSYR 230520Z 2306/2406 22007KT P6SM FEW050
     FM231300 26010KT P6SM BKN050 PROB30 2316/2318 4SM TSRA OVC040CB
     FM231800 32010KT P6SM OVC050
     FM240000 33006KT P6SM OVC050=

USA.gov is the U.S. government's official web portal to all federal, state and local government web resources and services.